Time;durP1;ratioP1;P1;durP2;ratioP2;P2;SDS_P1;SDS_P2;PMS_P1;PMS_P2;Temp;Humidity;BMP_temperature;BMP_pressure;BME280_temperature;BME280_humidity;BME280_pressure;Samples;Min_cycle;Max_cycle;Signal;HPM_P1;HPM_P2
2021/03/02 13:14:36;;;;;;;23.90;9.02;;;;;;;;;;6308272;22;20087;-78
2021/03/02 13:23:15;;;;;;;20.27;8.63;;;;;;;;;;6282661;22;20149;-90
2021/03/02 13:25:41;;;;;;;24.52;8.75;;;;;;;;;;6249866;22;20075;-79
2021/03/02 13:28:09;;;;;;;21.77;7.88;;;;;;;;;;6248058;22;20019;-78
2021/03/02 13:30:35;;;;;;;20.70;8.70;;;;;;;;;;6273156;22;20004;-79
2021/03/02 13:33:06;;;;;;;22.15;9.10;;;;;;;;;;6276483;22;20376;-78
2021/03/02 13:35:32;;;;;;;26.65;9.57;;;;;;;;;;6249379;22;20003;-78
2021/03/02 13:38:03;;;;;;;25.23;9.52;;;;;;;;;;6249080;22;20082;-80
2021/03/02 13:40:29;;;;;;;20.38;9.32;;;;;;;;;;6248984;22;20106;-79
2021/03/02 13:42:56;;;;;;;23.73;9.95;;;;;;;;;;6276097;22;20014;-78
2021/03/02 13:45:23;;;;;;;24.67;9.52;;;;;;;;;;6249330;22;20011;-79
2021/03/02 13:47:52;;;;;;;25.90;10.50;;;;;;;;;;6249000;22;20020;-78
2021/03/02 13:50:18;;;;;;;24.23;9.02;;;;;;;;;;6249400;22;20414;-80
2021/03/02 13:52:44;;;;;;;21.25;9.30;;;;;;;;;;6249072;22;20008;-78
2021/03/02 13:55:10;;;;;;;21.10;9.48;;;;;;;;;;6249343;22;20004;-79
2021/03/02 13:57:38;;;;;;;22.50;10.23;;;;;;;;;;6248981;22;20035;-80
2021/03/02 14:00:12;;;;;;;24.75;10.05;;;;;;;;;;6249086;22;20008;-80
2021/03/02 14:02:39;;;;;;;23.83;9.95;;;;;;;;;;6276724;22;19999;-79
2021/03/02 14:05:05;;;;;;;23.02;9.88;;;;;;;;;;6249557;22;20394;-80
2021/03/02 14:07:32;;;;;;;28.05;10.27;;;;;;;;;;6247732;22;20094;-80
2021/03/02 14:09:59;;;;;;;26.60;10.70;;;;;;;;;;6246980;22;20504;-81
2021/03/02 14:12:25;;;;;;;24.55;9.73;;;;;;;;;;6249098;22;20083;-79
2021/03/02 14:14:52;;;;;;;22.15;9.10;;;;;;;;;;6276084;22;20004;-81
2021/03/02 14:17:21;;;;;;;25.42;9.38;;;;;;;;;;6275923;22;20527;-79
2021/03/02 14:19:47;;;;;;;29.67;9.65;;;;;;;;;;6247848;22;20039;-79
2021/03/02 14:22:13;;;;;;;23.52;9.32;;;;;;;;;;6276255;22;20003;-79
2021/03/02 14:24:40;;;;;;;20.40;9.20;;;;;;;;;;6249130;22;20014;-79
2021/03/02 14:27:07;;;;;;;25.00;9.52;;;;;;;;;;6249223;22;20004;-80
2021/03/02 14:29:33;;;;;;;19.58;8.35;;;;;;;;;;6248394;22;20015;-79
2021/03/02 14:32:00;;;;;;;25.10;9.05;;;;;;;;;;6276213;22;20002;-78
2021/03/02 14:34:26;;;;;;;25.05;9.75;;;;;;;;;;6249971;22;20429;-79
2021/03/02 14:36:53;;;;;;;24.67;9.32;;;;;;;;;;6250971;22;20004;-78
2021/03/02 14:39:19;;;;;;;19.20;9.15;;;;;;;;;;6250943;22;20010;-77
2021/03/02 14:41:51;;;;;;;24.10;9.38;;;;;;;;;;6250623;22;20065;-79
2021/03/02 14:44:22;;;;;;;20.80;8.50;;;;;;;;;;6250878;22;20023;-81
2021/03/02 14:46:48;;;;;;;20.73;8.73;;;;;;;;;;6251124;22;20043;-78
2021/03/02 14:49:27;;;;;;;21.63;9.32;;;;;;;;;;6278320;22;20086;-80
2021/03/02 14:51:53;;;;;;;20.27;8.68;;;;;;;;;;6252471;22;20008;-76
2021/03/02 14:54:21;;;;;;;18.30;8.27;;;;;;;;;;6250986;22;20496;-80
2021/03/02 14:56:47;;;;;;;21.58;8.77;;;;;;;;;;6250835;22;20008;-77
2021/03/02 14:59:14;;;;;;;28.83;9.68;;;;;;;;;;6251033;22;20007;-80
2021/03/02 15:01:40;;;;;;;19.80;9.75;;;;;;;;;;6250668;22;20007;-76
2021/03/02 15:04:08;;;;;;;20.95;8.38;;;;;;;;;;6250688;22;20054;-77
2021/03/02 15:06:34;;;;;;;18.70;8.02;;;;;;;;;;6250440;22;20003;-77
2021/03/02 15:09:00;;;;;;;17.58;7.85;;;;;;;;;;6277750;22;20034;-76
2021/03/02 15:11:27;;;;;;;18.85;7.80;;;;;;;;;;6250657;22;20000;-79
2021/03/02 15:13:53;;;;;;;23.55;8.75;;;;;;;;;;6277618;22;20009;-77
2021/03/02 15:16:22;;;;;;;23.35;8.73;;;;;;;;;;6277703;22;20358;-76
2021/03/02 15:18:48;;;;;;;18.33;8.57;;;;;;;;;;6250160;22;20007;-76
2021/03/02 15:21:15;;;;;;;17.55;8.65;;;;;;;;;;6277336;22;20117;-78
2021/03/02 15:23:43;;;;;;;22.70;9.90;;;;;;;;;;6250268;22;20007;-77
2021/03/02 15:26:10;;;;;;;23.23;8.88;;;;;;;;;;6250386;22;20008;-77
2021/03/02 15:28:37;;;;;;;25.50;11.13;;;;;;;;;;6250208;22;20012;-77
2021/03/02 15:31:05;;;;;;;26.08;11.00;;;;;;;;;;6250571;22;20000;-80
2021/03/02 15:33:31;;;;;;;28.13;11.13;;;;;;;;;;6277280;22;20003;-77
2021/03/02 15:35:58;;;;;;;23.05;10.77;;;;;;;;;;6250477;22;20004;-77
2021/03/02 15:38:24;;;;;;;25.02;11.23;;;;;;;;;;6250263;22;20027;-77
2021/03/02 15:40:53;;;;;;;24.38;10.25;;;;;;;;;;6252050;22;20075;-78
2021/03/02 15:43:22;;;;;;;21.90;8.65;;;;;;;;;;6250994;22;20038;-76
2021/03/02 15:45:49;;;;;;;24.95;9.63;;;;;;;;;;6276032;22;20035;-77
2021/03/02 15:48:16;;;;;;;19.75;9.52;;;;;;;;;;6277115;22;20016;-77
2021/03/02 15:50:44;;;;;;;25.45;10.20;;;;;;;;;;6250015;22;20329;-77
2021/03/02 15:53:14;;;;;;;26.40;10.50;;;;;;;;;;6277276;22;20000;-76
2021/03/02 15:55:43;;;;;;;24.35;10.57;;;;;;;;;;6276885;22;20027;-77
2021/03/02 15:58:09;;;;;;;26.20;10.80;;;;;;;;;;6277631;22;19999;-79
2021/03/02 16:00:35;;;;;;;27.42;10.60;;;;;;;;;;6250231;22;20004;-76
2021/03/02 16:03:13;;;;;;;25.83;10.05;;;;;;;;;;6250185;22;20004;-77
2021/03/02 16:05:43;;;;;;;30.52;10.90;;;;;;;;;;6276985;22;20051;-76
2021/03/02 16:08:11;;;;;;;30.90;10.73;;;;;;;;;;6277020;22;20035;-76
2021/03/02 16:10:38;;;;;;;34.42;11.48;;;;;;;;;;6277070;22;20030;-77
2021/03/02 16:13:05;;;;;;;29.50;10.82;;;;;;;;;;6277256;22;20037;-77
2021/03/02 16:15:32;;;;;;;26.65;10.88;;;;;;;;;;6277059;22;20031;-77
2021/03/02 16:17:59;;;;;;;35.78;11.90;;;;;;;;;;6276880;22;20487;-77
2021/03/02 16:20:26;;;;;;;28.45;11.32;;;;;;;;;;6254852;22;20031;-78
2021/03/02 16:22:53;;;;;;;27.45;11.27;;;;;;;;;;6277248;22;20057;-77
2021/03/02 16:25:20;;;;;;;29.25;11.45;;;;;;;;;;6277027;22;20069;-78
2021/03/02 16:27:46;;;;;;;32.63;11.55;;;;;;;;;;6276969;22;20092;-78
2021/03/02 16:30:14;;;;;;;28.20;12.43;;;;;;;;;;6275460;22;20364;-78
2021/03/02 16:32:40;;;;;;;35.17;12.15;;;;;;;;;;6277557;22;19999;-76
2021/03/02 16:35:07;;;;;;;29.67;12.00;;;;;;;;;;6277096;22;20027;-78
2021/03/02 16:37:34;;;;;;;31.48;12.07;;;;;;;;;;6276598;22;19999;-80
2021/03/02 16:40:02;;;;;;;33.75;13.80;;;;;;;;;;6277002;22;20014;-79
2021/03/02 16:42:28;;;;;;;35.60;13.98;;;;;;;;;;6277063;22;19999;-77
2021/03/02 16:44:55;;;;;;;30.33;12.15;;;;;;;;;;6276879;22;20110;-80
2021/03/02 16:47:21;;;;;;;30.27;12.73;;;;;;;;;;6275265;22;20015;-79
2021/03/02 16:49:54;;;;;;;33.03;12.80;;;;;;;;;;6276778;22;20099;-79
2021/03/02 16:52:23;;;;;;;32.30;12.60;;;;;;;;;;6275171;22;20329;-79
2021/03/02 16:54:55;;;;;;;33.38;13.88;;;;;;;;;;6276421;22;20310;-79
2021/03/02 16:57:30;;;;;;;42.95;15.18;;;;;;;;;;6273890;22;20095;-81
2021/03/02 16:59:58;;;;;;;32.15;14.43;;;;;;;;;;6275811;22;19995;-77
2021/03/02 17:02:25;;;;;;;42.15;15.80;;;;;;;;;;6276462;22;20067;-75
2021/03/02 17:04:52;;;;;;;36.90;16.75;;;;;;;;;;6276436;22;20447;-76
2021/03/02 17:07:20;;;;;;;53.45;18.23;;;;;;;;;;6276314;22;20101;-79
2021/03/02 17:09:47;;;;;;;41.17;16.15;;;;;;;;;;6274555;22;20086;-76
2021/03/02 17:12:13;;;;;;;34.42;13.85;;;;;;;;;;6274249;22;20042;-78
2021/03/02 17:14:39;;;;;;;36.22;14.35;;;;;;;;;;6276009;22;20004;-76
2021/03/02 17:17:05;;;;;;;37.55;15.95;;;;;;;;;;6274044;22;20035;-77
2021/03/02 17:19:32;;;;;;;50.38;18.05;;;;;;;;;;6273570;22;20015;-78
2021/03/02 17:21:59;;;;;;;40.20;16.27;;;;;;;;;;6271699;22;20484;-79
2021/03/02 17:24:25;;;;;;;41.40;16.20;;;;;;;;;;6275704;22;20421;-78
2021/03/02 17:26:52;;;;;;;36.28;15.50;;;;;;;;;;6273998;22;20011;-79
2021/03/02 17:29:19;;;;;;;41.22;17.35;;;;;;;;;;6272865;22;20022;-80
2021/03/02 17:31:45;;;;;;;56.67;18.90;;;;;;;;;;6274408;22;20440;-79
2021/03/02 17:34:11;;;;;;;54.85;19.38;;;;;;;;;;6276085;22;20000;-79
2021/03/02 17:36:37;;;;;;;49.78;18.45;;;;;;;;;;6274315;22;20090;-79
2021/03/02 17:39:04;;;;;;;54.38;18.98;;;;;;;;;;6274359;22;20377;-80
2021/03/02 17:41:30;;;;;;;64.65;20.20;;;;;;;;;;6274584;22;20004;-78
2021/03/02 17:43:56;;;;;;;48.83;18.45;;;;;;;;;;6274517;22;20003;-80
2021/03/02 17:46:22;;;;;;;53.55;19.80;;;;;;;;;;6274028;22;20039;-78
2021/03/02 17:48:48;;;;;;;48.72;19.55;;;;;;;;;;6273936;22;20099;-79
2021/03/02 17:51:14;;;;;;;49.55;18.23;;;;;;;;;;6273736;22;20362;-79
2021/03/02 17:53:40;;;;;;;47.88;18.25;;;;;;;;;;6273840;22;20057;-77
2021/03/02 17:56:06;;;;;;;48.00;20.20;;;;;;;;;;6276069;22;20000;-78
2021/03/02 17:58:32;;;;;;;45.72;18.35;;;;;;;;;;6276051;22;20141;-79
2021/03/02 18:00:58;;;;;;;56.75;19.50;;;;;;;;;;6274624;22;20010;-79
2021/03/02 18:03:26;;;;;;;54.38;19.73;;;;;;;;;;6274813;22;20451;-78
2021/03/02 18:05:52;;;;;;;51.38;19.15;;;;;;;;;;6275789;22;20000;-78
2021/03/02 18:08:19;;;;;;;44.08;16.98;;;;;;;;;;6274433;22;20441;-76
2021/03/02 18:10:45;;;;;;;44.83;17.40;;;;;;;;;;6278278;22;20369;-80
2021/03/02 18:13:11;;;;;;;50.50;18.13;;;;;;;;;;6278286;22;19996;-79
2021/03/02 18:15:37;;;;;;;48.17;17.15;;;;;;;;;;6278088;22;20421;-84
2021/03/02 18:18:03;;;;;;;41.58;17.67;;;;;;;;;;6276609;22;20007;-81
2021/03/02 18:20:30;;;;;;;49.97;17.85;;;;;;;;;;6276800;22;20015;-79
2021/03/02 18:22:56;;;;;;;45.08;18.48;;;;;;;;;;6276752;22;20388;-77
2021/03/02 18:25:22;;;;;;;47.85;18.15;;;;;;;;;;6276471;22;20454;-80
2021/03/02 18:27:48;;;;;;;46.85;19.08;;;;;;;;;;6276426;22;20015;-80
2021/03/02 18:30:14;;;;;;;61.08;20.42;;;;;;;;;;6278394;22;20414;-80
2021/03/02 18:32:41;;;;;;;52.05;19.98;;;;;;;;;;6276100;22;20054;-77
2021/03/02 18:35:07;;;;;;;64.97;20.77;;;;;;;;;;6276460;22;20004;-79
2021/03/02 18:37:33;;;;;;;52.90;19.17;;;;;;;;;;6277871;22;20441;-78
2021/03/02 18:39:59;;;;;;;55.90;19.63;;;;;;;;;;6278074;22;20062;-83
2021/03/02 18:42:25;;;;;;;51.95;18.42;;;;;;;;;;6276341;22;20007;-80
2021/03/02 18:44:51;;;;;;;48.28;19.00;;;;;;;;;;6276490;22;20418;-83
2021/03/02 18:47:18;;;;;;;40.65;16.55;;;;;;;;;;6278291;22;20027;-79
2021/03/02 18:49:44;;;;;;;39.58;17.08;;;;;;;;;;6276413;22;20505;-79
2021/03/02 18:52:10;;;;;;;45.85;17.45;;;;;;;;;;6276523;22;20065;-79
2021/03/02 18:54:36;;;;;;;45.70;16.63;;;;;;;;;;6276125;22;20086;-77
2021/03/02 18:57:04;;;;;;;42.75;15.18;;;;;;;;;;6275958;22;20011;-79
2021/03/02 18:59:30;;;;;;;46.92;15.77;;;;;;;;;;6276361;22;20008;-78
2021/03/02 19:01:57;;;;;;;34.95;14.57;;;;;;;;;;6276481;22;20464;-77
2021/03/02 19:04:23;;;;;;;46.05;14.82;;;;;;;;;;6278080;22;20000;-77
2021/03/02 19:06:49;;;;;;;45.13;16.20;;;;;;;;;;6276133;22;20421;-79
2021/03/02 19:09:15;;;;;;;36.92;13.80;;;;;;;;;;6276160;22;20162;-78
2021/03/02 19:11:41;;;;;;;37.72;14.77;;;;;;;;;;6277996;22;20003;-79
2021/03/02 19:14:08;;;;;;;55.75;15.73;;;;;;;;;;6276173;22;20004;-81
2021/03/02 19:16:34;;;;;;;38.00;15.25;;;;;;;;;;6278598;22;20029;-87
2021/03/02 19:19:00;;;;;;;43.08;15.90;;;;;;;;;;6277233;22;20335;-85
2021/03/02 19:21:26;;;;;;;44.80;16.10;;;;;;;;;;6275453;22;20020;-79
2021/03/02 19:23:52;;;;;;;46.85;15.63;;;;;;;;;;6276400;22;20419;-80
2021/03/02 19:26:19;;;;;;;48.78;18.27;;;;;;;;;;6276267;22;20086;-81
2021/03/02 19:28:45;;;;;;;51.55;17.55;;;;;;;;;;6277332;22;20345;-81
2021/03/02 19:31:11;;;;;;;53.55;17.98;;;;;;;;;;6277153;22;20078;-86
2021/03/02 19:33:37;;;;;;;47.15;16.77;;;;;;;;;;6276772;22;20003;-84
2021/03/02 19:36:04;;;;;;;50.25;17.23;;;;;;;;;;6276927;22;20011;-85
2021/03/02 19:38:31;;;;;;;52.15;19.50;;;;;;;;;;6277176;22;20015;-85
2021/03/02 19:40:57;;;;;;;52.78;18.80;;;;;;;;;;6278821;22;20502;-85
2021/03/02 19:43:23;;;;;;;49.97;19.20;;;;;;;;;;6277383;22;20337;-86
2021/03/02 19:45:50;;;;;;;46.25;18.27;;;;;;;;;;6277782;22;20053;-86
2021/03/02 19:48:16;;;;;;;50.28;17.33;;;;;;;;;;6277715;22;20441;-85
2021/03/02 19:50:42;;;;;;;45.58;16.05;;;;;;;;;;6280297;22;20026;-85
2021/03/02 19:53:08;;;;;;;43.10;15.10;;;;;;;;;;6277540;22;20030;-84
2021/03/02 19:55:34;;;;;;;37.33;14.00;;;;;;;;;;6278515;22;20013;-86
2021/03/02 19:58:01;;;;;;;42.35;14.35;;;;;;;;;;6279019;22;20544;-86
2021/03/02 20:00:27;;;;;;;39.15;13.68;;;;;;;;;;6276994;22;20082;-86
2021/03/02 20:02:53;;;;;;;35.97;12.98;;;;;;;;;;6278401;22;20057;-86
2021/03/02 20:05:21;;;;;;;31.98;11.13;;;;;;;;;;6276057;22;20008;-78
2021/03/02 20:07:47;;;;;;;31.63;13.60;;;;;;;;;;6275373;22;20065;-78
2021/03/02 20:10:14;;;;;;;31.38;13.30;;;;;;;;;;6275888;22;20425;-83
2021/03/02 20:12:40;;;;;;;36.58;11.73;;;;;;;;;;6277315;22;20000;-77
2021/03/02 20:15:07;;;;;;;37.85;14.15;;;;;;;;;;6276446;22;20003;-88
2021/03/02 20:17:33;;;;;;;42.80;13.48;;;;;;;;;;6276265;22;20003;-79
2021/03/02 20:20:00;;;;;;;32.00;13.02;;;;;;;;;;6276672;22;20004;-85
2021/03/02 20:22:28;;;;;;;37.90;13.18;;;;;;;;;;6277960;22;20015;-86
2021/03/02 20:24:55;;;;;;;40.67;13.32;;;;;;;;;;6251218;22;20004;-85
2021/03/02 20:27:22;;;;;;;42.30;14.48;;;;;;;;;;6251032;22;20057;-85
2021/03/02 20:29:48;;;;;;;37.05;13.68;;;;;;;;;;6251122;22;20069;-80
2021/03/02 20:32:15;;;;;;;47.92;14.40;;;;;;;;;;6278146;22;20069;-84
2021/03/02 20:34:42;;;;;;;35.67;12.90;;;;;;;;;;6226193;22;20095;-87
2021/03/02 20:37:08;;;;;;;43.35;16.65;;;;;;;;;;6251330;22;20011;-82
2021/03/02 20:39:34;;;;;;;46.38;15.45;;;;;;;;;;6278262;22;19999;-83
2021/03/02 20:42:01;;;;;;;44.53;16.58;;;;;;;;;;6251462;22;20430;-87
2021/03/02 20:44:27;;;;;;;42.60;17.42;;;;;;;;;;6278018;22;20003;-88
2021/03/02 20:46:57;;;;;;;39.30;15.65;;;;;;;;;;6251904;22;20057;-87
2021/03/02 20:49:23;;;;;;;48.05;16.65;;;;;;;;;;6278460;22;20370;-88
2021/03/02 20:51:49;;;;;;;38.80;14.52;;;;;;;;;;6251369;22;20004;-79
2021/03/02 20:54:16;;;;;;;42.55;14.88;;;;;;;;;;6278096;22;20003;-88
2021/03/02 20:56:45;;;;;;;36.05;14.98;;;;;;;;;;6251232;22;20004;-85
2021/03/02 20:59:12;;;;;;;46.58;13.95;;;;;;;;;;6251187;22;20000;-87
2021/03/02 21:01:39;;;;;;;40.72;15.13;;;;;;;;;;6251819;22;20008;-86
2021/03/02 21:04:07;;;;;;;31.25;12.88;;;;;;;;;;6279326;22;20445;-85
2021/03/02 21:06:33;;;;;;;39.22;14.23;;;;;;;;;;6270609;22;20004;-86
2021/03/02 21:09:00;;;;;;;39.85;13.48;;;;;;;;;;6254135;22;20103;-87
2021/03/02 21:11:27;;;;;;;34.40;13.85;;;;;;;;;;6251218;22;20003;-86
2021/03/02 21:13:54;;;;;;;32.35;12.32;;;;;;;;;;6277747;22;20006;-87
2021/03/02 21:16:20;;;;;;;35.58;14.32;;;;;;;;;;6250656;22;20543;-85
2021/03/02 21:18:46;;;;;;;33.53;12.48;;;;;;;;;;6250846;22;20015;-88
2021/03/02 21:21:14;;;;;;;30.02;12.73;;;;;;;;;;6277470;22;20392;-88
2021/03/02 21:23:40;;;;;;;34.95;12.85;;;;;;;;;;6250723;22;20011;-85
2021/03/02 21:26:06;;;;;;;49.10;13.88;;;;;;;;;;6277443;22;20018;-84
2021/03/02 21:28:33;;;;;;;37.58;14.13;;;;;;;;;;6277260;22;20057;-79
2021/03/02 21:30:59;;;;;;;43.30;14.20;;;;;;;;;;6250375;22;20007;-84
2021/03/02 21:33:26;;;;;;;39.92;16.05;;;;;;;;;;6248874;22;20019;-80
2021/03/02 21:35:52;;;;;;;53.03;17.13;;;;;;;;;;6249061;22;20065;-85
2021/03/02 21:38:19;;;;;;;48.55;17.05;;;;;;;;;;6277295;22;20008;-85
2021/03/02 21:40:45;;;;;;;44.35;16.35;;;;;;;;;;6278019;22;20007;-86
2021/03/02 21:43:12;;;;;;;39.13;14.77;;;;;;;;;;6251353;22;20451;-85
2021/03/02 21:45:38;;;;;;;38.47;14.02;;;;;;;;;;6252277;22;20003;-86
2021/03/02 21:48:05;;;;;;;34.72;12.52;;;;;;;;;;6277486;22;20003;-86
2021/03/02 21:50:31;;;;;;;49.70;15.63;;;;;;;;;;6277422;22;19996;-86
2021/03/02 21:52:57;;;;;;;46.50;18.30;;;;;;;;;;6250768;22;20425;-85
2021/03/02 21:55:24;;;;;;;55.17;19.95;;;;;;;;;;6250518;22;20022;-86
2021/03/02 21:57:50;;;;;;;57.30;21.35;;;;;;;;;;6250352;22;20004;-86
2021/03/02 22:00:17;;;;;;;51.97;21.10;;;;;;;;;;6250121;22;20004;-87
2021/03/02 22:02:43;;;;;;;52.67;16.75;;;;;;;;;;6278045;22;20410;-88
2021/03/02 22:05:09;;;;;;;45.15;15.75;;;;;;;;;;6250505;22;20004;-85
2021/03/02 22:07:36;;;;;;;38.97;14.13;;;;;;;;;;6250778;22;20012;-86
2021/03/02 22:10:02;;;;;;;44.00;16.38;;;;;;;;;;6251035;22;20000;-86
2021/03/02 22:12:28;;;;;;;38.58;14.52;;;;;;;;;;6251086;22;20008;-86
2021/03/02 22:14:55;;;;;;;42.33;13.40;;;;;;;;;;6250423;22;20000;-79
2021/03/02 22:17:21;;;;;;;49.80;15.27;;;;;;;;;;6250123;22;20004;-87
2021/03/02 22:19:48;;;;;;;48.83;15.55;;;;;;;;;;6250695;22;20102;-86
2021/03/02 22:22:14;;;;;;;41.10;15.52;;;;;;;;;;6277354;22;20015;-86
2021/03/02 22:24:40;;;;;;;44.70;14.75;;;;;;;;;;6250664;22;20079;-86
2021/03/02 22:27:07;;;;;;;31.98;12.88;;;;;;;;;;6250400;22;20000;-86
2021/03/02 22:29:33;;;;;;;35.22;13.60;;;;;;;;;;6280803;22;20126;-87
2021/03/02 22:31:59;;;;;;;27.42;11.73;;;;;;;;;;6254638;22;20007;-87
2021/03/02 22:34:26;;;;;;;41.88;12.18;;;;;;;;;;6250633;22;20003;-87
2021/03/02 22:36:53;;;;;;;34.53;12.80;;;;;;;;;;6250693;22;20023;-87
2021/03/02 22:39:20;;;;;;;33.47;13.13;;;;;;;;;;6277349;22;20336;-87
2021/03/02 22:41:46;;;;;;;36.97;14.18;;;;;;;;;;6250378;22;20082;-87
2021/03/02 22:44:12;;;;;;;35.13;13.63;;;;;;;;;;6250609;22;20003;-88
2021/03/02 22:46:39;;;;;;;32.03;12.90;;;;;;;;;;6250358;22;20039;-88
2021/03/02 22:49:06;;;;;;;35.13;12.77;;;;;;;;;;6250400;22;20441;-88
2021/03/02 22:51:32;;;;;;;32.05;12.20;;;;;;;;;;6250844;22;20015;-80
2021/03/02 22:53:59;;;;;;;37.88;14.15;;;;;;;;;;6250722;22;20052;-88
2021/03/02 22:56:25;;;;;;;34.65;14.02;;;;;;;;;;6251696;22;20441;-88
2021/03/02 22:58:51;;;;;;;55.08;20.60;;;;;;;;;;6279029;22;20014;-90
2021/03/02 23:01:18;;;;;;;50.55;18.63;;;;;;;;;;6252542;22;19999;-89
2021/03/02 23:03:44;;;;;;;35.83;12.82;;;;;;;;;;6252096;22;20031;-88
2021/03/02 23:06:10;;;;;;;34.85;11.52;;;;;;;;;;6279368;22;20000;-90
2021/03/02 23:08:37;;;;;;;35.60;12.23;;;;;;;;;;6252776;22;20038;-87
2021/03/02 23:11:04;;;;;;;44.35;17.08;;;;;;;;;;6252453;22;19999;-87
2021/03/02 23:13:31;;;;;;;44.22;17.65;;;;;;;;;;6252492;22;20437;-88
2021/03/02 23:15:57;;;;;;;51.00;17.75;;;;;;;;;;6251768;22;20004;-87
2021/03/02 23:18:24;;;;;;;43.70;16.67;;;;;;;;;;6278891;22;20008;-87
2021/03/02 23:20:50;;;;;;;47.35;15.77;;;;;;;;;;6278632;22;20054;-87
2021/03/02 23:23:17;;;;;;;51.95;15.85;;;;;;;;;;6251844;22;20023;-80
2021/03/02 23:25:43;;;;;;;88.15;27.73;;;;;;;;;;6251878;22;20004;-87
2021/03/02 23:28:09;;;;;;;71.45;23.58;;;;;;;;;;6251652;22;20085;-88
2021/03/02 23:30:36;;;;;;;48.10;16.98;;;;;;;;;;6251960;22;20445;-85
2021/03/02 23:33:02;;;;;;;41.95;12.95;;;;;;;;;;6252201;22;20063;-87
2021/03/02 23:35:29;;;;;;;45.85;13.90;;;;;;;;;;6274226;22;20010;-86
2021/03/02 23:37:55;;;;;;;41.67;13.35;;;;;;;;;;6259545;22;20038;-88
2021/03/02 23:40:21;;;;;;;38.88;14.07;;;;;;;;;;6253635;22;20050;-86
2021/03/02 23:42:48;;;;;;;39.30;14.23;;;;;;;;;;6252643;22;20031;-91
2021/03/02 23:45:14;;;;;;;37.08;12.68;;;;;;;;;;6251872;22;20398;-86
2021/03/02 23:47:40;;;;;;;30.13;12.25;;;;;;;;;;6252011;22;19999;-83
2021/03/02 23:50:08;;;;;;;34.20;11.52;;;;;;;;;;6281569;22;20004;-86
2021/03/02 23:52:35;;;;;;;26.95;9.77;;;;;;;;;;6251573;22;20000;-87
2021/03/02 23:55:01;;;;;;;25.13;9.65;;;;;;;;;;6254391;22;20010;-86
2021/03/02 23:57:28;;;;;;;35.60;11.35;;;;;;;;;;6252855;22;20086;-87
2021/03/02 23:59:54;;;;;;;22.45;7.97;;;;;;;;;;6278603;22;20011;-78
